Terminal Aerodrome Forecast
Issued by NWS Binghamton, NY

Current Version | Previous Version | Text Only | Print | Product List | Glossary On
Versions: 1 2 3 4 5 6 7 8 9 10 11 12 13 14 15 16 17 18 19 20
000
FTUS41 KBGM 220700 AAA
TAFSYR
TAF AMD
KSYR 220759Z 2208/2306 30012KT P6SM OVC015
      TEMPO 2208/2212 5SM -SHRA BR OVC006
     FM221500 31014G22KT P6SM OVC025
     FM222100 31012G18KT P6SM SCT025 BKN035
     FM230000 30008KT P6SM BKN035=

USA.gov is the U.S. government's official web portal to all federal, state and local government web resources and services.